createdAt,value
2023-05-13T00:01:38.972Z,4.20
2023-05-13T00:04:07.138Z,4.70
2023-05-13T00:06:35.996Z,4.03
2023-05-13T00:09:05.569Z,4.70
2023-05-13T00:11:33.505Z,5.40
2023-05-13T00:14:01.402Z,4.57
2023-05-13T00:16:29.447Z,4.27
2023-05-13T00:18:59.188Z,4.50
2023-05-13T00:21:27.481Z,4.83
2023-05-13T00:23:55.459Z,4.63
2023-05-13T00:26:23.375Z,4.23
2023-05-13T00:28:51.292Z,4.83
2023-05-13T00:31:19.398Z,3.90
2023-05-13T00:33:47.401Z,4.20
2023-05-13T00:36:16.733Z,4.43
2023-05-13T00:38:44.963Z,4.00
2023-05-13T00:41:13.198Z,4.27
2023-05-13T00:43:41.082Z,4.27
2023-05-13T00:46:09.269Z,4.50
2023-05-13T00:48:37.169Z,4.30
2023-05-13T00:51:05.683Z,5.10
2023-05-13T00:53:35.349Z,4.53
2023-05-13T00:56:03.288Z,4.63
2023-05-13T00:58:31.113Z,5.47
2023-05-13T01:01:18.327Z,4.97
2023-05-13T01:03:54.244Z,4.50
2023-05-13T01:06:27.878Z,5.60
2023-05-13T01:09:02.897Z,5.60
2023-05-13T01:11:34.662Z,5.77
2023-05-13T01:14:04.877Z,4.63
2023-05-13T01:16:37.162Z,4.67
2023-05-13T01:19:14.775Z,4.70
2023-05-13T01:21:53.224Z,4.80
2023-05-13T01:24:21.196Z,5.27
2023-05-13T01:26:49.383Z,4.90
2023-05-13T01:29:17.928Z,5.57
2023-05-13T01:31:47.533Z,5.43
2023-05-13T01:34:16.817Z,5.63
2023-05-13T01:36:46.381Z,6.10
2023-05-13T01:39:14.796Z,5.60
2023-05-13T01:41:42.807Z,5.60
2023-05-13T01:44:10.726Z,6.50
2023-05-13T01:46:39.308Z,5.40
2023-05-13T01:49:09.331Z,4.97
2023-05-13T01:51:37.884Z,4.43
2023-05-13T01:54:07.164Z,4.53
2023-05-13T01:56:35.190Z,5.23
2023-05-13T01:59:03.222Z,5.13
2023-05-13T02:01:31.198Z,5.43
2023-05-13T02:03:59.909Z,5.00
2023-05-13T02:06:28.528Z,5.43
2023-05-13T02:08:56.443Z,5.37
2023-05-13T02:11:25.683Z,5.20
2023-05-13T02:13:53.527Z,4.87
2023-05-13T02:16:21.798Z,5.13
2023-05-13T02:18:49.702Z,5.10
2023-05-13T02:21:17.678Z,5.00
2023-05-13T02:23:45.612Z,5.73
2023-05-13T02:26:13.481Z,4.83
2023-05-13T02:28:42.690Z,4.90
2023-05-13T02:31:10.535Z,4.77
2023-05-13T02:33:38.401Z,5.23
2023-05-13T02:36:07.069Z,4.50
2023-05-13T02:38:34.908Z,3.77
2023-05-13T02:41:02.840Z,4.63
2023-05-13T02:43:31.176Z,4.37
2023-05-13T02:46:00.809Z,4.10
2023-05-13T02:48:28.690Z,5.17
2023-05-13T02:50:56.591Z,4.60
2023-05-13T02:53:24.440Z,4.57
2023-05-13T02:55:52.332Z,5.50
2023-05-13T02:58:20.321Z,5.10
2023-05-13T03:00:48.140Z,5.20
2023-05-13T03:03:17.377Z,3.83
2023-05-13T03:05:45.453Z,4.50
2023-05-13T03:08:13.426Z,4.20
2023-05-13T03:10:41.226Z,3.93
2023-05-13T03:13:09.101Z,4.20
2023-05-13T03:15:37.004Z,4.53
2023-05-13T03:18:05.006Z,5.70
2023-05-13T03:20:34.299Z,4.27
2023-05-13T03:23:02.276Z,4.10
2023-05-13T03:25:30.123Z,4.23
2023-05-13T03:27:57.977Z,3.90
2023-05-13T03:30:25.961Z,4.27
2023-05-13T03:32:53.846Z,4.00
2023-05-13T03:35:21.716Z,4.10
2023-05-13T03:37:50.895Z,4.40
2023-05-13T03:40:20.243Z,4.27
2023-05-13T03:42:48.314Z,4.70
2023-05-13T03:45:16.228Z,4.03
2023-05-13T03:47:44.192Z,3.77
2023-05-13T03:50:12.144Z,5.00
2023-05-13T03:52:40.104Z,4.27
2023-05-13T03:55:10.080Z,4.90
2023-05-13T03:57:37.955Z,4.50
2023-05-13T04:00:06.702Z,4.40
2023-05-13T04:02:34.754Z,4.30
2023-05-13T04:05:02.702Z,4.40
2023-05-13T04:07:30.683Z,4.70
2023-05-13T04:09:58.576Z,4.80
2023-05-13T04:12:27.881Z,4.33
2023-05-13T04:14:55.767Z,3.93
2023-05-13T04:17:23.681Z,4.30
2023-05-13T04:19:53.924Z,4.63
2023-05-13T04:22:22.732Z,4.20
2023-05-13T04:24:51.960Z,3.90
2023-05-13T04:27:19.918Z,4.10
2023-05-13T04:29:49.140Z,4.27
2023-05-13T04:32:21.552Z,4.70
2023-05-13T04:34:49.540Z,4.20
2023-05-13T04:37:17.478Z,4.40
2023-05-13T04:39:47.443Z,4.73
2023-05-13T04:42:16.320Z,3.97
2023-05-13T04:44:44.574Z,5.07
2023-05-13T04:47:13.742Z,3.97
2023-05-13T04:49:42.328Z,4.70
2023-05-13T04:52:12.898Z,4.80
2023-05-13T04:54:40.819Z,4.90
2023-05-13T04:57:08.836Z,4.30
2023-05-13T04:59:36.744Z,4.40
2023-05-13T05:02:04.868Z,5.33
2023-05-13T05:04:36.544Z,4.30
2023-05-13T05:07:04.595Z,5.10
2023-05-13T05:09:32.468Z,4.70
2023-05-13T05:12:00.381Z,4.20
2023-05-13T05:14:28.294Z,4.70
2023-05-13T05:16:56.153Z,5.53
2023-05-13T05:19:24.711Z,4.57
2023-05-13T05:21:54.038Z,4.73
2023-05-13T05:24:21.948Z,4.50
2023-05-13T05:26:49.848Z,4.80
2023-05-13T05:29:17.767Z,4.30
2023-05-13T05:31:46.063Z,4.70
2023-05-13T05:34:13.979Z,4.57
2023-05-13T05:36:41.968Z,4.40
2023-05-13T05:39:11.565Z,4.00
2023-05-13T05:41:39.509Z,4.87
2023-05-13T05:44:07.509Z,4.90
2023-05-13T05:46:35.496Z,4.70
2023-05-13T05:49:03.771Z,4.70
2023-05-13T05:51:31.760Z,4.50
2023-05-13T05:53:59.610Z,4.77
2023-05-13T05:56:28.901Z,4.60
2023-05-13T05:58:56.860Z,4.37
2023-05-13T06:01:25.000Z,5.00
2023-05-13T06:03:54.835Z,4.80
2023-05-13T06:06:23.032Z,4.67
2023-05-13T06:08:51.052Z,4.80
2023-05-13T06:11:18.904Z,5.27
2023-05-13T06:13:48.210Z,4.07
2023-05-13T06:16:16.134Z,4.40
2023-05-13T06:18:44.139Z,4.90
2023-05-13T06:21:12.225Z,4.30
2023-05-13T06:23:40.570Z,5.03
2023-05-13T06:26:08.466Z,5.03
2023-05-13T06:28:36.325Z,5.57
2023-05-13T06:31:05.671Z,5.20
2023-05-13T06:33:33.628Z,5.10
2023-05-13T06:36:01.552Z,4.83
2023-05-13T06:38:29.444Z,4.83
2023-05-13T06:40:57.356Z,4.43
2023-05-13T06:43:25.233Z,5.40
2023-05-13T06:45:53.095Z,5.03
2023-05-13T06:48:22.471Z,4.10
2023-05-13T06:50:50.401Z,4.40
2023-05-13T06:53:18.325Z,4.33
2023-05-13T06:55:46.169Z,4.20
2023-05-13T06:58:14.144Z,5.03
2023-05-13T07:00:42.728Z,4.40
2023-05-13T07:03:10.679Z,4.53
2023-05-13T07:05:40.051Z,4.70
2023-05-13T07:08:08.583Z,5.10
2023-05-13T07:10:37.201Z,3.93
2023-05-13T07:13:05.424Z,4.10
2023-05-13T07:15:33.305Z,4.60
2023-05-13T07:18:01.227Z,4.77
2023-05-13T07:20:29.226Z,4.50
2023-05-13T07:22:58.645Z,4.60
2023-05-13T07:25:26.577Z,4.50
2023-05-13T07:27:54.409Z,5.10
2023-05-13T07:30:22.745Z,4.50
2023-05-13T07:32:53.222Z,4.80
2023-05-13T07:35:22.467Z,4.90
2023-05-13T07:37:50.532Z,4.20
2023-05-13T07:40:21.193Z,5.20
2023-05-13T07:42:49.332Z,4.83
2023-05-13T07:45:17.321Z,4.53
2023-05-13T07:47:45.287Z,4.70
2023-05-13T07:50:13.453Z,4.40
2023-05-13T07:52:41.646Z,5.10
2023-05-13T07:55:10.797Z,4.50
2023-05-13T07:57:40.058Z,5.20
2023-05-13T08:00:09.072Z,6.77
2023-05-13T08:02:39.381Z,6.18
2023-05-13T08:05:08.279Z,5.30
2023-05-13T08:07:36.210Z,5.90
2023-05-13T08:10:04.357Z,5.33
2023-05-13T08:12:32.361Z,4.90
2023-05-13T08:15:03.778Z,5.40
2023-05-13T08:17:31.737Z,5.07
2023-05-13T08:20:00.141Z,5.50
2023-05-13T08:22:28.416Z,5.37
2023-05-13T08:24:56.326Z,4.70
2023-05-13T08:27:24.276Z,4.50
2023-05-13T08:29:52.182Z,4.40
2023-05-13T08:32:21.710Z,4.70
2023-05-13T08:34:49.953Z,4.60
2023-05-13T08:37:17.826Z,5.10
2023-05-13T08:39:45.777Z,5.03
2023-05-13T08:42:19.258Z,4.73
2023-05-13T08:44:48.944Z,3.87
2023-05-13T08:47:27.627Z,4.43
2023-05-13T08:49:57.288Z,4.23
2023-05-13T08:52:26.192Z,4.03
2023-05-13T08:54:55.357Z,4.33
2023-05-13T08:57:23.298Z,4.80
2023-05-13T08:59:51.323Z,4.77
2023-05-13T09:02:19.417Z,3.87
2023-05-13T09:04:52.755Z,4.50
2023-05-13T09:07:20.691Z,4.47
2023-05-13T09:09:48.776Z,4.37
2023-05-13T09:12:52.087Z,4.47
2023-05-13T09:15:21.885Z,4.23
2023-05-13T09:17:52.445Z,4.87
2023-05-13T09:20:25.375Z,4.47
2023-05-13T09:22:54.931Z,4.00
2023-05-13T09:25:24.975Z,4.53
2023-05-13T09:27:57.590Z,4.23
2023-05-13T09:30:26.113Z,3.60
2023-05-13T09:33:08.740Z,5.50
2023-05-13T09:35:39.670Z,4.23
2023-05-13T09:38:15.757Z,3.87
2023-05-13T09:40:51.092Z,3.80
2023-05-13T09:43:20.224Z,4.80
2023-05-13T09:45:48.148Z,4.40
2023-05-13T09:48:16.261Z,4.63
2023-05-13T09:50:52.492Z,5.00
2023-05-13T09:53:21.138Z,3.90
2023-05-13T09:55:49.831Z,4.00
2023-05-13T09:58:19.031Z,4.00
2023-05-13T10:00:47.914Z,3.60
2023-05-13T10:03:16.511Z,3.57
2023-05-13T10:05:44.674Z,5.07
2023-05-13T10:08:15.294Z,5.30
2023-05-13T10:10:45.630Z,6.67
2023-05-13T10:13:15.584Z,4.93
2023-05-13T10:15:49.815Z,4.50
2023-05-13T10:18:18.376Z,5.80
2023-05-13T10:20:46.858Z,5.70
2023-05-13T10:23:16.625Z,5.03
2023-05-13T10:25:45.560Z,4.80
2023-05-13T10:28:14.815Z,5.13
2023-05-13T10:30:43.160Z,5.13
2023-05-13T10:33:11.631Z,4.87
2023-05-13T10:35:43.492Z,4.53
2023-05-13T10:38:18.124Z,5.43
2023-05-13T10:40:56.742Z,5.10
2023-05-13T10:43:26.179Z,5.07
2023-05-13T10:45:59.778Z,5.30
2023-05-13T10:48:28.103Z,4.50
2023-05-13T10:50:57.300Z,5.70
2023-05-13T10:53:29.374Z,4.63
2023-05-13T10:55:59.217Z,4.70
2023-05-13T10:58:31.069Z,4.60
2023-05-13T11:01:18.006Z,4.60
2023-05-13T11:03:54.074Z,6.30
2023-05-13T11:06:23.583Z,4.30
2023-05-13T11:08:55.985Z,4.00
2023-05-13T11:11:30.980Z,3.80
2023-05-13T11:14:09.439Z,4.30
2023-05-13T11:16:38.111Z,4.23
2023-05-13T11:19:19.190Z,3.80
2023-05-13T11:21:50.865Z,4.90
2023-05-13T11:24:21.933Z,4.07
2023-05-13T11:26:52.240Z,5.73
2023-05-13T11:29:31.076Z,4.80
2023-05-13T11:32:00.780Z,4.40
2023-05-13T11:34:29.222Z,5.00
2023-05-13T11:36:59.377Z,4.10
2023-05-13T11:39:28.669Z,4.03
2023-05-13T11:41:57.427Z,4.50
2023-05-13T11:44:26.351Z,4.63
2023-05-13T11:46:56.072Z,3.73
2023-05-13T11:49:38.895Z,3.50
2023-05-13T11:52:09.026Z,3.70
2023-05-13T11:54:47.233Z,4.10
2023-05-13T11:57:22.839Z,4.10
2023-05-13T11:59:52.338Z,4.30
2023-05-13T12:02:22.453Z,5.13
2023-05-13T12:04:51.819Z,4.50
2023-05-13T12:07:24.644Z,3.90
2023-05-13T12:09:56.874Z,4.13
2023-05-13T12:12:25.580Z,4.97
2023-05-13T12:14:54.164Z,3.93
2023-05-13T12:17:22.935Z,4.87
2023-05-13T12:20:10.317Z,4.17
2023-05-13T12:22:38.933Z,4.63
2023-05-13T12:25:39.244Z,4.80
2023-05-13T12:28:11.856Z,3.70
2023-05-13T12:30:40.977Z,4.60
2023-05-13T12:33:14.945Z,4.07
2023-05-13T12:35:43.048Z,4.60
2023-05-13T12:38:17.249Z,4.37
2023-05-13T12:40:47.086Z,4.20
2023-05-13T12:43:17.679Z,3.97
2023-05-13T12:45:47.317Z,3.90
2023-05-13T12:48:15.438Z,4.97
2023-05-13T12:50:43.313Z,6.30
2023-05-13T12:53:11.195Z,4.67
2023-05-13T12:55:40.082Z,3.33
2023-05-13T12:58:12.148Z,3.53
2023-05-13T13:00:40.050Z,3.57
2023-05-13T13:03:08.557Z,3.97
2023-05-13T13:05:36.772Z,4.20
2023-05-13T13:08:06.040Z,3.20
2023-05-13T13:10:34.097Z,3.47
2023-05-13T13:13:01.977Z,3.80
2023-05-13T13:15:31.374Z,4.20
2023-05-13T13:17:59.274Z,4.00
2023-05-13T13:20:27.243Z,4.23
2023-05-13T13:22:55.376Z,3.93
2023-05-13T13:25:23.532Z,4.23
2023-05-13T13:27:51.600Z,3.63
2023-05-13T13:30:19.490Z,4.07
2023-05-13T13:32:48.924Z,4.13
2023-05-13T13:35:16.962Z,4.00
2023-05-13T13:37:44.843Z,4.30
2023-05-13T13:40:14.511Z,3.77
2023-05-13T13:42:44.677Z,3.63
2023-05-13T13:45:13.763Z,4.43
2023-05-13T13:47:42.156Z,3.30
2023-05-13T13:50:12.858Z,3.10
2023-05-13T13:52:40.798Z,4.43
2023-05-13T13:55:11.442Z,3.80
2023-05-13T13:57:39.491Z,4.03
2023-05-13T14:00:08.773Z,4.17
2023-05-13T14:02:36.802Z,4.80
2023-05-13T14:05:04.999Z,4.23
2023-05-13T14:07:34.400Z,4.63
2023-05-13T14:10:02.275Z,4.30
2023-05-13T14:12:30.211Z,3.70
2023-05-13T14:14:58.317Z,4.57
2023-05-13T14:17:26.313Z,4.47
2023-05-13T14:19:55.338Z,4.47
2023-05-13T14:22:23.894Z,5.20
2023-05-13T14:24:53.997Z,5.13
2023-05-13T14:27:24.583Z,4.70
2023-05-13T14:29:52.992Z,4.10
2023-05-13T14:32:20.941Z,5.80
2023-05-13T14:34:48.896Z,4.47
2023-05-13T14:37:16.738Z,5.00
2023-05-13T14:39:44.985Z,4.60
2023-05-13T14:42:15.349Z,4.50
2023-05-13T14:44:43.244Z,4.83
2023-05-13T14:47:11.794Z,3.93
2023-05-13T14:49:39.832Z,4.17
2023-05-13T14:52:07.671Z,4.83
2023-05-13T14:54:37.863Z,5.30
2023-05-13T14:57:07.416Z,3.80
2023-05-13T14:59:37.007Z,4.90
2023-05-13T15:02:05.248Z,4.50
2023-05-13T15:04:33.158Z,4.50
2023-05-13T15:07:03.035Z,4.50
2023-05-13T15:09:30.924Z,4.80
2023-05-13T15:11:58.853Z,4.50
2023-05-13T15:14:26.856Z,4.60
2023-05-13T15:16:56.134Z,5.10
2023-05-13T15:19:24.029Z,5.07
2023-05-13T15:21:52.119Z,4.80
2023-05-13T15:24:20.040Z,4.73
2023-05-13T15:26:50.002Z,5.67
2023-05-13T15:29:17.897Z,5.17
2023-05-13T15:31:45.804Z,5.00
2023-05-13T15:34:15.065Z,5.17
2023-05-13T15:36:42.961Z,4.90
2023-05-13T15:39:11.230Z,5.50
2023-05-13T15:41:39.206Z,6.00
2023-05-13T15:44:07.087Z,5.40
2023-05-13T15:46:35.302Z,4.93
2023-05-13T15:49:03.308Z,4.53
2023-05-13T15:51:33.184Z,4.50
2023-05-13T15:54:01.137Z,5.43
2023-05-13T15:56:29.239Z,4.90
2023-05-13T15:58:57.115Z,5.30
2023-05-13T16:01:25.139Z,4.87
2023-05-13T16:03:53.063Z,4.70
2023-05-13T16:06:20.967Z,4.93
2023-05-13T16:08:50.155Z,5.10
2023-05-13T16:11:18.584Z,4.07
2023-05-13T16:13:46.476Z,4.23
2023-05-13T16:16:14.368Z,4.30
2023-05-13T16:18:45.473Z,4.00
2023-05-13T16:21:13.480Z,4.70
2023-05-13T16:23:41.367Z,4.40
2023-05-13T16:26:10.578Z,5.13
2023-05-13T16:28:38.518Z,5.27
2023-05-13T16:31:06.377Z,4.90
2023-05-13T16:33:34.924Z,4.33
2023-05-13T16:36:02.845Z,4.90
2023-05-13T16:38:30.901Z,4.83
2023-05-13T16:40:59.270Z,4.77
2023-05-13T16:43:28.558Z,3.93
2023-05-13T16:45:56.837Z,4.90
2023-05-13T16:48:24.921Z,5.33
2023-05-13T16:50:52.937Z,4.80
2023-05-13T16:53:22.359Z,5.40
2023-05-13T16:55:50.589Z,6.37
2023-05-13T16:58:18.678Z,5.33
2023-05-13T17:00:47.930Z,4.50
2023-05-13T17:03:16.228Z,5.00
2023-05-13T17:05:44.618Z,4.90
2023-05-13T17:08:12.432Z,5.20
2023-05-13T17:10:40.395Z,5.70
2023-05-13T17:13:08.355Z,5.17
2023-05-13T17:15:36.476Z,5.60
2023-05-13T17:18:05.834Z,4.70
2023-05-13T17:20:33.810Z,4.93
2023-05-13T17:23:01.726Z,4.77
2023-05-13T17:25:29.663Z,4.90
2023-05-13T17:27:57.558Z,4.87
2023-05-13T17:30:25.621Z,4.07
2023-05-13T17:32:56.357Z,5.43
2023-05-13T17:35:25.742Z,5.00
2023-05-13T17:37:53.646Z,4.77
2023-05-13T17:40:21.846Z,4.20
2023-05-13T17:42:51.526Z,3.90
2023-05-13T17:45:20.963Z,4.07
2023-05-13T17:47:48.899Z,4.50
2023-05-13T17:50:18.386Z,4.43
2023-05-13T17:52:47.732Z,4.83
2023-05-13T17:55:15.668Z,4.60
2023-05-13T17:57:43.506Z,4.10
2023-05-13T18:00:12.657Z,4.17
2023-05-13T18:02:41.072Z,3.90
2023-05-13T18:05:10.235Z,4.20
2023-05-13T18:07:38.270Z,4.40
2023-05-13T18:10:09.249Z,4.63
2023-05-13T18:12:37.112Z,4.80
2023-05-13T18:15:05.890Z,4.73
2023-05-13T18:17:33.753Z,5.07
2023-05-13T18:20:01.646Z,4.93
2023-05-13T18:22:29.489Z,5.63
2023-05-13T18:24:57.351Z,6.07
2023-05-13T18:27:26.663Z,6.83
2023-05-13T18:29:54.525Z,8.07
2023-05-13T18:32:22.452Z,7.87
2023-05-13T18:34:50.430Z,7.73
2023-05-13T18:37:18.405Z,7.00
2023-05-13T18:39:46.687Z,6.87
2023-05-13T18:42:14.676Z,6.73
2023-05-13T18:44:44.393Z,7.60
2023-05-13T18:47:12.321Z,7.30
2023-05-13T18:49:40.421Z,7.63
2023-05-13T18:52:08.629Z,8.50
2023-05-13T18:54:36.889Z,8.40
2023-05-13T18:57:05.148Z,7.10
2023-05-13T18:59:33.074Z,7.70
2023-05-13T19:02:02.553Z,7.23
2023-05-13T19:04:30.763Z,8.30
2023-05-13T19:06:58.721Z,7.83
2023-05-13T19:09:26.721Z,8.60
2023-05-13T19:11:54.611Z,8.47
2023-05-13T19:14:22.491Z,7.80
2023-05-13T19:16:50.373Z,7.40
2023-05-13T19:19:19.652Z,7.67
2023-05-13T19:21:47.531Z,7.93
2023-05-13T19:24:15.560Z,7.20
2023-05-13T19:26:43.520Z,7.57
2023-05-13T19:29:11.386Z,8.93
2023-05-13T19:31:39.423Z,8.70
2023-05-13T19:34:07.587Z,8.20
2023-05-13T19:36:36.911Z,7.20
2023-05-13T19:39:04.990Z,8.40
2023-05-13T19:41:34.430Z,9.63
2023-05-13T19:44:02.401Z,12.90
2023-05-13T19:46:30.494Z,9.57
2023-05-13T19:48:58.476Z,10.13
2023-05-13T19:51:26.787Z,9.33
2023-05-13T19:53:56.774Z,9.03
2023-05-13T19:56:24.886Z,9.20
2023-05-13T19:58:52.802Z,8.77
2023-05-13T20:01:20.765Z,9.73
2023-05-13T20:03:48.896Z,9.20
2023-05-13T20:06:16.914Z,9.93
2023-05-13T20:08:44.867Z,10.67
2023-05-13T20:11:14.167Z,10.53
2023-05-13T20:13:42.029Z,10.43
2023-05-13T20:16:10.126Z,10.20
2023-05-13T20:18:38.357Z,10.47
2023-05-13T20:21:06.630Z,10.70
2023-05-13T20:23:34.534Z,9.70
2023-05-13T20:26:02.529Z,9.80
2023-05-13T20:28:31.694Z,9.80
2023-05-13T20:31:02.115Z,9.00
2023-05-13T20:33:30.228Z,8.70
2023-05-13T20:35:58.433Z,10.00
2023-05-13T20:38:26.294Z,9.40
2023-05-13T20:40:54.180Z,9.30
2023-05-13T20:43:22.054Z,8.47
2023-05-13T20:45:51.539Z,9.30
2023-05-13T20:48:19.456Z,8.93
2023-05-13T20:50:47.318Z,8.97
2023-05-13T20:53:15.350Z,7.80
2023-05-13T20:55:43.299Z,9.13
2023-05-13T20:58:12.139Z,8.37
2023-05-13T21:00:40.090Z,9.10
2023-05-13T21:03:09.438Z,9.40
2023-05-13T21:05:37.575Z,9.77
2023-05-13T21:08:05.739Z,9.57
2023-05-13T21:10:33.623Z,9.10
2023-05-13T21:13:01.738Z,10.17
2023-05-13T21:15:29.961Z,10.30
2023-05-13T21:17:57.935Z,10.60
2023-05-13T21:20:27.270Z,10.23
2023-05-13T21:22:55.120Z,9.83
2023-05-13T21:25:23.077Z,10.33
2023-05-13T21:27:51.117Z,9.77
2023-05-13T21:30:19.086Z,10.50
2023-05-13T21:32:47.016Z,11.80
2023-05-13T21:35:15.157Z,13.43
2023-05-13T21:37:46.589Z,12.13
2023-05-13T21:40:15.762Z,12.03
2023-05-13T21:42:43.844Z,11.77
2023-05-13T21:45:12.697Z,12.23
2023-05-13T21:47:40.672Z,13.80
2023-05-13T21:50:10.552Z,12.93
2023-05-13T21:52:38.582Z,12.07
2023-05-13T21:55:08.813Z,12.47
2023-05-13T21:57:36.704Z,13.20
2023-05-13T22:00:10.497Z,12.00
2023-05-13T22:02:38.729Z,11.80
2023-05-13T22:05:11.091Z,12.50
2023-05-13T22:07:39.069Z,14.00
2023-05-13T22:10:09.513Z,14.10
2023-05-13T22:12:37.523Z,13.77
2023-05-13T22:15:06.407Z,14.40
2023-05-13T22:17:34.494Z,12.60
2023-05-13T22:20:02.690Z,12.67
2023-05-13T22:22:31.329Z,13.40
2023-05-13T22:24:59.191Z,13.00
2023-05-13T22:27:28.415Z,13.37
2023-05-13T22:29:56.835Z,13.60
2023-05-13T22:32:25.008Z,12.83
2023-05-13T22:34:52.936Z,13.77
2023-05-13T22:37:20.865Z,13.60
2023-05-13T22:39:48.850Z,12.63
2023-05-13T22:42:16.713Z,14.17
2023-05-13T22:44:45.959Z,14.33
2023-05-13T22:47:13.831Z,14.20
2023-05-13T22:49:41.809Z,13.80
2023-05-13T22:52:09.729Z,14.40
2023-05-13T22:54:37.599Z,14.73
2023-05-13T22:57:05.816Z,13.70
2023-05-13T22:59:33.696Z,13.63
2023-05-13T23:02:03.087Z,13.33
2023-05-13T23:04:31.105Z,13.20
2023-05-13T23:06:59.092Z,12.90
2023-05-13T23:09:27.017Z,14.03
2023-05-13T23:11:54.872Z,13.00
2023-05-13T23:14:22.767Z,13.00
2023-05-13T23:16:50.573Z,14.23
2023-05-13T23:19:19.886Z,13.80
2023-05-13T23:21:47.771Z,13.20
2023-05-13T23:24:15.605Z,13.33
2023-05-13T23:26:45.786Z,13.10
2023-05-13T23:29:15.088Z,12.90
2023-05-13T23:31:42.991Z,12.50
2023-05-13T23:34:11.035Z,12.40
2023-05-13T23:36:40.228Z,13.03
2023-05-13T23:39:08.060Z,12.43
2023-05-13T23:41:35.998Z,12.63
2023-05-13T23:44:03.958Z,13.83
2023-05-13T23:46:31.942Z,13.07
2023-05-13T23:48:59.908Z,13.40
2023-05-13T23:51:27.733Z,13.40
2023-05-13T23:53:56.934Z,14.10
2023-05-13T23:56:24.867Z,13.20
2023-05-13T23:58:53.057Z,13.20
